sensor_id;sensor_type;location;lat;lon;timestamp;pressure;altitude;pressure_sealevel;temperature;humidity
75536;BME280;64119;52.070;20.804;2023-11-19T00:00:28;101139.95;;;0.80;98.59
75536;BME280;64119;52.070;20.804;2023-11-19T00:03:16;101136.91;;;0.81;98.48
75536;BME280;64119;52.070;20.804;2023-11-19T00:05:45;101138.55;;;0.83;98.56
75536;BME280;64119;52.070;20.804;2023-11-19T00:08:13;101141.28;;;0.83;98.09
75536;BME280;64119;52.070;20.804;2023-11-19T00:10:41;101148.68;;;0.85;98.44
75536;BME280;64119;52.070;20.804;2023-11-19T00:13:09;101155.23;;;0.85;98.04
75536;BME280;64119;52.070;20.804;2023-11-19T00:15:37;101155.76;;;0.85;98.02
75536;BME280;64119;52.070;20.804;2023-11-19T00:18:07;101153.39;;;0.85;97.82
75536;BME280;64119;52.070;20.804;2023-11-19T00:20:35;101138.65;;;0.83;97.95
75536;BME280;64119;52.070;20.804;2023-11-19T00:23:03;101131.66;;;0.82;98.16
75536;BME280;64119;52.070;20.804;2023-11-19T00:25:31;101124.60;;;0.81;98.18
75536;BME280;64119;52.070;20.804;2023-11-19T00:27:59;101120.89;;;0.81;98.69
75536;BME280;64119;52.070;20.804;2023-11-19T00:30:27;101121.21;;;0.82;98.47
75536;BME280;64119;52.070;20.804;2023-11-19T00:32:55;101126.61;;;0.84;98.51
75536;BME280;64119;52.070;20.804;2023-11-19T00:35:23;101129.13;;;0.85;97.93
75536;BME280;64119;52.070;20.804;2023-11-19T00:37:51;101126.10;;;0.86;98.08
75536;BME280;64119;52.070;20.804;2023-11-19T00:40:19;101123.96;;;0.87;98.15
75536;BME280;64119;52.070;20.804;2023-11-19T00:42:50;101117.16;;;0.85;98.00
75536;BME280;64119;52.070;20.804;2023-11-19T00:45:18;101112.27;;;0.85;98.10
75536;BME280;64119;52.070;20.804;2023-11-19T00:47:46;101107.85;;;0.86;97.94
75536;BME280;64119;52.070;20.804;2023-11-19T00:50:14;101102.44;;;0.86;98.20
75536;BME280;64119;52.070;20.804;2023-11-19T00:52:43;101088.55;;;0.85;98.25
75536;BME280;64119;52.070;20.804;2023-11-19T00:55:11;101087.78;;;0.87;98.03
75536;BME280;64119;52.070;20.804;2023-11-19T00:57:40;101082.68;;;0.85;98.28
75536;BME280;64119;52.070;20.804;2023-11-19T01:00:09;101072.84;;;0.84;98.16
75536;BME280;64119;52.070;20.804;2023-11-19T01:02:47;101065.30;;;0.84;98.33
75536;BME280;64119;52.070;20.804;2023-11-19T01:05:20;101061.34;;;0.86;98.21
75536;BME280;64119;52.070;20.804;2023-11-19T01:07:51;101059.63;;;0.86;97.98
75536;BME280;64119;52.070;20.804;2023-11-19T01:10:22;101058.27;;;0.81;98.28
75536;BME280;64119;52.070;20.804;2023-11-19T01:12:49;101051.27;;;0.78;98.40
75536;BME280;64119;52.070;20.804;2023-11-19T01:15:17;101047.10;;;0.78;98.28
75536;BME280;64119;52.070;20.804;2023-11-19T01:17:48;101044.96;;;0.79;98.40
75536;BME280;64119;52.070;20.804;2023-11-19T01:20:21;101039.94;;;0.76;98.52
75536;BME280;64119;52.070;20.804;2023-11-19T01:22:50;101035.38;;;0.74;98.65
75536;BME280;64119;52.070;20.804;2023-11-19T01:25:18;101030.41;;;0.71;98.59
75536;BME280;64119;52.070;20.804;2023-11-19T01:27:46;101032.38;;;0.70;98.63
75536;BME280;64119;52.070;20.804;2023-11-19T01:30:14;101038.94;;;0.71;98.90
75536;BME280;64119;52.070;20.804;2023-11-19T01:32:41;101044.97;;;0.72;98.69
75536;BME280;64119;52.070;20.804;2023-11-19T01:35:09;101042.98;;;0.73;98.81
75536;BME280;64119;52.070;20.804;2023-11-19T01:37:37;101046.89;;;0.74;98.92
75536;BME280;64119;52.070;20.804;2023-11-19T01:40:06;101042.69;;;0.77;98.66
75536;BME280;64119;52.070;20.804;2023-11-19T01:42:37;101032.20;;;0.77;98.68
75536;BME280;64119;52.070;20.804;2023-11-19T01:45:06;101025.41;;;0.77;98.37
75536;BME280;64119;52.070;20.804;2023-11-19T01:47:38;101023.20;;;0.77;98.34
75536;BME280;64119;52.070;20.804;2023-11-19T01:50:07;101021.16;;;0.74;98.54
75536;BME280;64119;52.070;20.804;2023-11-19T01:52:36;101020.52;;;0.73;98.57
75536;BME280;64119;52.070;20.804;2023-11-19T01:55:07;101022.31;;;0.75;98.83
75536;BME280;64119;52.070;20.804;2023-11-19T01:57:38;101020.30;;;0.76;98.41
75536;BME280;64119;52.070;20.804;2023-11-19T02:00:08;101013.31;;;0.74;98.50
75536;BME280;64119;52.070;20.804;2023-11-19T02:02:40;101008.13;;;0.71;98.68
75536;BME280;64119;52.070;20.804;2023-11-19T02:05:11;101005.94;;;0.70;98.83
75536;BME280;64119;52.070;20.804;2023-11-19T02:07:39;101009.73;;;0.70;98.90
75536;BME280;64119;52.070;20.804;2023-11-19T02:10:08;101006.23;;;0.73;98.85
75536;BME280;64119;52.070;20.804;2023-11-19T02:12:41;100995.73;;;0.74;98.47
75536;BME280;64119;52.070;20.804;2023-11-19T02:15:12;100987.79;;;0.73;98.58
75536;BME280;64119;52.070;20.804;2023-11-19T02:17:40;100978.30;;;0.69;99.10
75536;BME280;64119;52.070;20.804;2023-11-19T02:20:09;100980.12;;;0.68;99.09
75536;BME280;64119;52.070;20.804;2023-11-19T02:22:40;100980.84;;;0.70;98.87
75536;BME280;64119;52.070;20.804;2023-11-19T02:25:12;100978.00;;;0.71;98.93
75536;BME280;64119;52.070;20.804;2023-11-19T02:27:59;100976.78;;;0.71;98.67
75536;BME280;64119;52.070;20.804;2023-11-19T02:30:27;100975.73;;;0.71;98.25
75536;BME280;64119;52.070;20.804;2023-11-19T02:32:56;100973.59;;;0.72;98.17
75536;BME280;64119;52.070;20.804;2023-11-19T02:35:26;100966.65;;;0.72;97.70
75536;BME280;64119;52.070;20.804;2023-11-19T02:37:54;100959.89;;;0.71;97.46
75536;BME280;64119;52.070;20.804;2023-11-19T02:40:22;100961.09;;;0.69;97.69
75536;BME280;64119;52.070;20.804;2023-11-19T02:42:52;100962.27;;;0.67;97.69
75536;BME280;64119;52.070;20.804;2023-11-19T02:45:24;100954.16;;;0.64;97.29
75536;BME280;64119;52.070;20.804;2023-11-19T02:47:53;100953.64;;;0.61;97.62
75536;BME280;64119;52.070;20.804;2023-11-19T02:50:23;100950.88;;;0.61;97.91
75536;BME280;64119;52.070;20.804;2023-11-19T02:52:55;100938.13;;;0.62;98.22
75536;BME280;64119;52.070;20.804;2023-11-19T02:55:25;100931.33;;;0.62;97.55
75536;BME280;64119;52.070;20.804;2023-11-19T02:57:53;100926.14;;;0.59;97.20
75536;BME280;64119;52.070;20.804;2023-11-19T03:00:22;100924.71;;;0.57;97.18
75536;BME280;64119;52.070;20.804;2023-11-19T03:03:01;100929.27;;;0.59;97.49
75536;BME280;64119;52.070;20.804;2023-11-19T03:05:49;100916.60;;;0.58;97.67
75536;BME280;64119;52.070;20.804;2023-11-19T03:08:17;100910.65;;;0.59;97.96
75536;BME280;64119;52.070;20.804;2023-11-19T03:10:48;100903.48;;;0.59;98.06
75536;BME280;64119;52.070;20.804;2023-11-19T03:13:16;100897.55;;;0.60;97.43
75536;BME280;64119;52.070;20.804;2023-11-19T03:15:45;100898.57;;;0.58;97.81
75536;BME280;64119;52.070;20.804;2023-11-19T03:18:14;100900.21;;;0.59;97.95
75536;BME280;64119;52.070;20.804;2023-11-19T03:20:41;100896.81;;;0.60;97.69
75536;BME280;64119;52.070;20.804;2023-11-19T03:23:09;100895.27;;;0.60;97.68
75536;BME280;64119;52.070;20.804;2023-11-19T03:25:38;100892.45;;;0.60;97.49
75536;BME280;64119;52.070;20.804;2023-11-19T03:28:05;100886.19;;;0.60;97.55
75536;BME280;64119;52.070;20.804;2023-11-19T03:30:34;100885.89;;;0.60;97.73
75536;BME280;64119;52.070;20.804;2023-11-19T03:33:02;100881.52;;;0.60;97.35
75536;BME280;64119;52.070;20.804;2023-11-19T03:35:30;100872.77;;;0.61;97.43
75536;BME280;64119;52.070;20.804;2023-11-19T03:37:58;100867.68;;;0.61;97.60
75536;BME280;64119;52.070;20.804;2023-11-19T03:40:26;100857.50;;;0.60;97.52
75536;BME280;64119;52.070;20.804;2023-11-19T03:42:56;100854.20;;;0.60;97.84
75536;BME280;64119;52.070;20.804;2023-11-19T03:45:25;100854.70;;;0.60;97.65
75536;BME280;64119;52.070;20.804;2023-11-19T03:47:53;100850.46;;;0.58;97.56
75536;BME280;64119;52.070;20.804;2023-11-19T03:50:21;100851.64;;;0.59;97.53
75536;BME280;64119;52.070;20.804;2023-11-19T03:52:49;100849.81;;;0.60;97.83
75536;BME280;64119;52.070;20.804;2023-11-19T03:55:17;100840.67;;;0.61;97.51
75536;BME280;64119;52.070;20.804;2023-11-19T03:57:45;100835.17;;;0.61;97.72
75536;BME280;64119;52.070;20.804;2023-11-19T04:00:14;100829.88;;;0.59;97.99
75536;BME280;64119;52.070;20.804;2023-11-19T04:02:43;100829.65;;;0.58;98.60
75536;BME280;64119;52.070;20.804;2023-11-19T04:05:12;100832.15;;;0.57;98.83
75536;BME280;64119;52.070;20.804;2023-11-19T04:07:40;100826.69;;;0.58;98.51
75536;BME280;64119;52.070;20.804;2023-11-19T04:10:08;100818.55;;;0.57;98.71
75536;BME280;64119;52.070;20.804;2023-11-19T04:12:36;100810.59;;;0.56;98.64
75536;BME280;64119;52.070;20.804;2023-11-19T04:15:04;100805.42;;;0.56;98.91
75536;BME280;64119;52.070;20.804;2023-11-19T04:17:32;100804.88;;;0.54;99.78
75536;BME280;64119;52.070;20.804;2023-11-19T04:20:00;100795.98;;;0.54;99.85
75536;BME280;64119;52.070;20.804;2023-11-19T04:22:28;100793.86;;;0.55;99.30
75536;BME280;64119;52.070;20.804;2023-11-19T04:24:56;100791.39;;;0.55;99.20
75536;BME280;64119;52.070;20.804;2023-11-19T04:27:25;100787.64;;;0.56;98.38
75536;BME280;64119;52.070;20.804;2023-11-19T04:29:53;100788.63;;;0.57;98.48
75536;BME280;64119;52.070;20.804;2023-11-19T04:32:23;100788.48;;;0.59;98.11
75536;BME280;64119;52.070;20.804;2023-11-19T04:34:53;100781.83;;;0.55;97.98
75536;BME280;64119;52.070;20.804;2023-11-19T04:37:20;100779.51;;;0.56;98.18
75536;BME280;64119;52.070;20.804;2023-11-19T04:39:48;100774.42;;;0.56;97.92
75536;BME280;64119;52.070;20.804;2023-11-19T04:42:16;100775.02;;;0.58;98.33
75536;BME280;64119;52.070;20.804;2023-11-19T04:44:45;100775.45;;;0.56;98.85
75536;BME280;64119;52.070;20.804;2023-11-19T04:47:14;100776.04;;;0.56;98.21
75536;BME280;64119;52.070;20.804;2023-11-19T04:49:42;100768.83;;;0.54;98.59
75536;BME280;64119;52.070;20.804;2023-11-19T04:52:11;100758.63;;;0.53;98.26
75536;BME280;64119;52.070;20.804;2023-11-19T04:54:43;100757.63;;;0.53;98.98
75536;BME280;64119;52.070;20.804;2023-11-19T04:57:11;100751.58;;;0.55;99.04
75536;BME280;64119;52.070;20.804;2023-11-19T04:59:40;100746.24;;;0.56;98.16
75536;BME280;64119;52.070;20.804;2023-11-19T05:02:09;100740.27;;;0.52;98.19
75536;BME280;64119;52.070;20.804;2023-11-19T05:04:37;100741.36;;;0.52;98.78
75536;BME280;64119;52.070;20.804;2023-11-19T05:07:05;100746.95;;;0.51;99.11
75536;BME280;64119;52.070;20.804;2023-11-19T05:09:34;100743.41;;;0.52;98.95
75536;BME280;64119;52.070;20.804;2023-11-19T05:12:02;100734.59;;;0.54;98.91
75536;BME280;64119;52.070;20.804;2023-11-19T05:14:30;100732.80;;;0.56;98.32
75536;BME280;64119;52.070;20.804;2023-11-19T05:16:58;100733.85;;;0.56;98.05
75536;BME280;64119;52.070;20.804;2023-11-19T05:19:26;100722.93;;;0.56;98.10
75536;BME280;64119;52.070;20.804;2023-11-19T05:21:54;100719.02;;;0.57;98.27
75536;BME280;64119;52.070;20.804;2023-11-19T05:24:22;100722.81;;;0.58;98.20
75536;BME280;64119;52.070;20.804;2023-11-19T05:26:51;100717.82;;;0.57;97.58
75536;BME280;64119;52.070;20.804;2023-11-19T05:29:19;100713.94;;;0.55;97.98
75536;BME280;64119;52.070;20.804;2023-11-19T05:31:47;100713.84;;;0.54;97.82
75536;BME280;64119;52.070;20.804;2023-11-19T05:34:15;100707.31;;;0.53;97.61
75536;BME280;64119;52.070;20.804;2023-11-19T05:36:43;100703.38;;;0.50;98.57
75536;BME280;64119;52.070;20.804;2023-11-19T05:39:11;100704.27;;;0.50;98.53
75536;BME280;64119;52.070;20.804;2023-11-19T05:41:39;100703.05;;;0.50;98.19
75536;BME280;64119;52.070;20.804;2023-11-19T05:44:06;100708.31;;;0.49;97.85
75536;BME280;64119;52.070;20.804;2023-11-19T05:46:34;100706.54;;;0.48;97.92
75536;BME280;64119;52.070;20.804;2023-11-19T05:49:11;100700.16;;;0.47;98.01
75536;BME280;64119;52.070;20.804;2023-11-19T05:51:39;100700.70;;;0.46;98.01
75536;BME280;64119;52.070;20.804;2023-11-19T05:54:08;100704.67;;;0.47;97.90
75536;BME280;64119;52.070;20.804;2023-11-19T05:56:37;100701.58;;;0.44;97.47
75536;BME280;64119;52.070;20.804;2023-11-19T05:59:05;100701.52;;;0.43;97.72
75536;BME280;64119;52.070;20.804;2023-11-19T06:01:42;100701.02;;;0.40;98.48
75536;BME280;64119;52.070;20.804;2023-11-19T06:04:10;100701.08;;;0.37;97.96
75536;BME280;64119;52.070;20.804;2023-11-19T06:06:38;100701.28;;;0.37;97.94
75536;BME280;64119;52.070;20.804;2023-11-19T06:09:07;100701.21;;;0.35;97.65
75536;BME280;64119;52.070;20.804;2023-11-19T06:11:37;100699.13;;;0.35;97.34
75536;BME280;64119;52.070;20.804;2023-11-19T06:14:06;100699.04;;;0.32;97.44
75536;BME280;64119;52.070;20.804;2023-11-19T06:16:34;100700.94;;;0.30;97.16
75536;BME280;64119;52.070;20.804;2023-11-19T06:19:04;100697.46;;;0.27;97.13
75536;BME280;64119;52.070;20.804;2023-11-19T06:21:32;100694.52;;;0.25;97.28
75536;BME280;64119;52.070;20.804;2023-11-19T06:24:00;100683.34;;;0.23;97.37
75536;BME280;64119;52.070;20.804;2023-11-19T06:26:29;100684.27;;;0.20;97.69
75536;BME280;64119;52.070;20.804;2023-11-19T06:28:56;100682.77;;;0.19;97.73
75536;BME280;64119;52.070;20.804;2023-11-19T06:31:24;100674.20;;;0.20;97.61
75536;BME280;64119;52.070;20.804;2023-11-19T06:33:53;100670.32;;;0.21;97.76
75536;BME280;64119;52.070;20.804;2023-11-19T06:36:21;100664.86;;;0.22;97.53
75536;BME280;64119;52.070;20.804;2023-11-19T06:38:49;100662.98;;;0.24;97.51
75536;BME280;64119;52.070;20.804;2023-11-19T06:41:17;100657.71;;;0.24;97.32
75536;BME280;64119;52.070;20.804;2023-11-19T06:43:45;100651.96;;;0.24;97.10
75536;BME280;64119;52.070;20.804;2023-11-19T06:46:16;100644.05;;;0.23;97.16
75536;BME280;64119;52.070;20.804;2023-11-19T06:48:45;100641.94;;;0.21;97.74
75536;BME280;64119;52.070;20.804;2023-11-19T06:51:13;100636.35;;;0.21;97.61
75536;BME280;64119;52.070;20.804;2023-11-19T06:53:42;100636.98;;;0.23;97.42
75536;BME280;64119;52.070;20.804;2023-11-19T06:56:22;100633.02;;;0.24;97.36
75536;BME280;64119;52.070;20.804;2023-11-19T06:58:51;100637.58;;;0.26;97.78
75536;BME280;64119;52.070;20.804;2023-11-19T07:01:19;100635.46;;;0.26;97.46
75536;BME280;64119;52.070;20.804;2023-11-19T07:03:48;100630.27;;;0.28;97.30
75536;BME280;64119;52.070;20.804;2023-11-19T07:06:17;100627.95;;;0.29;97.25
75536;BME280;64119;52.070;20.804;2023-11-19T07:08:44;100626.79;;;0.30;97.65
75536;BME280;64119;52.070;20.804;2023-11-19T07:11:13;100625.70;;;0.31;97.95
75536;BME280;64119;52.070;20.804;2023-11-19T07:13:44;100619.17;;;0.32;98.18
75536;BME280;64119;52.070;20.804;2023-11-19T07:16:14;100615.21;;;0.32;98.49
75536;BME280;64119;52.070;20.804;2023-11-19T07:18:42;100609.96;;;0.34;97.70
75536;BME280;64119;52.070;20.804;2023-11-19T07:21:12;100610.14;;;0.34;98.31
75536;BME280;64119;52.070;20.804;2023-11-19T07:23:40;100611.95;;;0.36;97.84
75536;BME280;64119;52.070;20.804;2023-11-19T07:26:09;100610.54;;;0.38;97.71
75536;BME280;64119;52.070;20.804;2023-11-19T07:28:37;100606.16;;;0.38;97.69
75536;BME280;64119;52.070;20.804;2023-11-19T07:31:07;100605.58;;;0.39;97.76
75536;BME280;64119;52.070;20.804;2023-11-19T07:33:36;100607.89;;;0.41;97.44
75536;BME280;64119;52.070;20.804;2023-11-19T07:36:05;100603.08;;;0.42;97.55
75536;BME280;64119;52.070;20.804;2023-11-19T07:38:35;100594.36;;;0.45;98.15
75536;BME280;64119;52.070;20.804;2023-11-19T07:41:03;100584.63;;;0.47;97.96
75536;BME280;64119;52.070;20.804;2023-11-19T07:43:32;100581.09;;;0.50;97.56
75536;BME280;64119;52.070;20.804;2023-11-19T07:46:01;100580.02;;;0.52;97.18
75536;BME280;64119;52.070;20.804;2023-11-19T07:48:29;100579.83;;;0.55;97.50
75536;BME280;64119;52.070;20.804;2023-11-19T07:50:57;100576.36;;;0.54;97.34
75536;BME280;64119;52.070;20.804;2023-11-19T07:53:25;100572.83;;;0.53;98.13
75536;BME280;64119;52.070;20.804;2023-11-19T07:55:52;100569.21;;;0.54;97.54
75536;BME280;64119;52.070;20.804;2023-11-19T07:58:20;100568.37;;;0.57;97.92
75536;BME280;64119;52.070;20.804;2023-11-19T08:00:48;100564.34;;;0.57;98.00
75536;BME280;64119;52.070;20.804;2023-11-19T08:03:16;100560.84;;;0.57;97.80
75536;BME280;64119;52.070;20.804;2023-11-19T08:05:45;100558.23;;;0.59;97.97
75536;BME280;64119;52.070;20.804;2023-11-19T08:08:14;100559.02;;;0.63;97.52
75536;BME280;64119;52.070;20.804;2023-11-19T08:10:42;100560.79;;;0.62;97.94
75536;BME280;64119;52.070;20.804;2023-11-19T08:13:12;100561.45;;;0.65;97.44
75536;BME280;64119;52.070;20.804;2023-11-19T08:15:40;100555.69;;;0.67;97.66
75536;BME280;64119;52.070;20.804;2023-11-19T08:18:12;100552.09;;;0.69;97.91
75536;BME280;64119;52.070;20.804;2023-11-19T08:20:41;100541.98;;;0.71;97.41
75536;BME280;64119;52.070;20.804;2023-11-19T08:23:10;100535.02;;;0.74;97.36
75536;BME280;64119;52.070;20.804;2023-11-19T08:25:38;100526.16;;;0.75;96.90
75536;BME280;64119;52.070;20.804;2023-11-19T08:28:06;100522.91;;;0.79;97.03
75536;BME280;64119;52.070;20.804;2023-11-19T08:30:34;100519.20;;;0.84;96.63
75536;BME280;64119;52.070;20.804;2023-11-19T08:33:02;100519.61;;;0.90;96.86
75536;BME280;64119;52.070;20.804;2023-11-19T08:35:34;100518.94;;;0.93;96.18
75536;BME280;64119;52.070;20.804;2023-11-19T08:38:02;100513.00;;;0.94;96.22
75536;BME280;64119;52.070;20.804;2023-11-19T08:40:30;100512.52;;;1.00;96.55
75536;BME280;64119;52.070;20.804;2023-11-19T08:42:58;100512.77;;;1.03;96.44
75536;BME280;64119;52.070;20.804;2023-11-19T08:45:26;100507.11;;;1.06;96.08
75536;BME280;64119;52.070;20.804;2023-11-19T08:47:53;100501.64;;;1.11;95.90
75536;BME280;64119;52.070;20.804;2023-11-19T08:50:22;100505.61;;;1.09;96.13
75536;BME280;64119;52.070;20.804;2023-11-19T08:52:50;100505.11;;;1.07;95.77
75536;BME280;64119;52.070;20.804;2023-11-19T08:55:18;100503.36;;;1.07;96.25
75536;BME280;64119;52.070;20.804;2023-11-19T08:57:46;100495.49;;;1.07;95.81
75536;BME280;64119;52.070;20.804;2023-11-19T09:00:15;100494.25;;;1.06;96.03
75536;BME280;64119;52.070;20.804;2023-11-19T09:02:43;100486.29;;;1.07;95.94
75536;BME280;64119;52.070;20.804;2023-11-19T09:05:12;100476.77;;;1.06;95.77
75536;BME280;64119;52.070;20.804;2023-11-19T09:07:43;100469.98;;;1.04;96.41
75536;BME280;64119;52.070;20.804;2023-11-19T09:10:11;100465.91;;;1.03;96.22
75536;BME280;64119;52.070;20.804;2023-11-19T09:12:39;100460.60;;;1.04;96.33
75536;BME280;64119;52.070;20.804;2023-11-19T09:15:07;100447.41;;;1.02;96.72
75536;BME280;64119;52.070;20.804;2023-11-19T09:17:38;100444.48;;;1.01;96.17
75536;BME280;64119;52.070;20.804;2023-11-19T09:20:06;100445.52;;;0.99;97.18
75536;BME280;64119;52.070;20.804;2023-11-19T09:22:35;100443.18;;;1.00;96.96
75536;BME280;64119;52.070;20.804;2023-11-19T09:25:04;100439.46;;;0.96;96.61
75536;BME280;64119;52.070;20.804;2023-11-19T09:27:32;100430.98;;;0.98;96.43
75536;BME280;64119;52.070;20.804;2023-11-19T09:30:00;100425.48;;;0.97;97.15
75536;BME280;64119;52.070;20.804;2023-11-19T09:32:28;100422.52;;;0.99;96.87
75536;BME280;64119;52.070;20.804;2023-11-19T09:34:56;100421.56;;;1.00;96.69
75536;BME280;64119;52.070;20.804;2023-11-19T09:37:24;100420.11;;;1.01;96.49
75536;BME280;64119;52.070;20.804;2023-11-19T09:39:52;100416.49;;;1.03;96.85
75536;BME280;64119;52.070;20.804;2023-11-19T09:42:21;100412.79;;;1.03;96.66
75536;BME280;64119;52.070;20.804;2023-11-19T09:44:49;100412.00;;;1.02;96.59
75536;BME280;64119;52.070;20.804;2023-11-19T09:47:18;100410.73;;;1.01;96.36
75536;BME280;64119;52.070;20.804;2023-11-19T09:49:48;100404.94;;;0.99;96.50
75536;BME280;64119;52.070;20.804;2023-11-19T09:52:17;100396.88;;;0.98;96.63
75536;BME280;64119;52.070;20.804;2023-11-19T09:54:45;100386.86;;;0.97;97.01
75536;BME280;64119;52.070;20.804;2023-11-19T09:57:13;100387.09;;;0.96;96.93
75536;BME280;64119;52.070;20.804;2023-11-19T09:59:44;100388.75;;;0.95;96.80
75536;BME280;64119;52.070;20.804;2023-11-19T10:02:13;100388.22;;;0.95;96.58
75536;BME280;64119;52.070;20.804;2023-11-19T10:04:42;100386.77;;;0.94;97.01
75536;BME280;64119;52.070;20.804;2023-11-19T10:07:12;100378.72;;;0.92;97.36
75536;BME280;64119;52.070;20.804;2023-11-19T10:09:40;100370.95;;;0.93;97.38
75536;BME280;64119;52.070;20.804;2023-11-19T10:12:08;100364.92;;;0.93;98.09
75536;BME280;64119;52.070;20.804;2023-11-19T10:14:37;100360.84;;;0.94;97.34
75536;BME280;64119;52.070;20.804;2023-11-19T10:17:07;100354.44;;;0.95;97.16
75536;BME280;64119;52.070;20.804;2023-11-19T10:19:35;100354.52;;;0.94;97.69
75536;BME280;64119;52.070;20.804;2023-11-19T10:22:06;100354.45;;;0.97;97.67
75536;BME280;64119;52.070;20.804;2023-11-19T10:24:34;100355.36;;;0.96;97.15
75536;BME280;64119;52.070;20.804;2023-11-19T10:27:07;100350.68;;;0.96;97.26
75536;BME280;64119;52.070;20.804;2023-11-19T10:29:37;100345.80;;;0.96;97.54
75536;BME280;64119;52.070;20.804;2023-11-19T10:32:05;100335.77;;;0.98;97.58
75536;BME280;64119;52.070;20.804;2023-11-19T10:35:05;100336.28;;;1.00;97.74
75536;BME280;64119;52.070;20.804;2023-11-19T10:37:34;100332.87;;;1.01;97.36
75536;BME280;64119;52.070;20.804;2023-11-19T10:40:06;100324.08;;;1.02;97.41
75536;BME280;64119;52.070;20.804;2023-11-19T10:42:34;100323.27;;;1.02;97.35
75536;BME280;64119;52.070;20.804;2023-11-19T10:45:02;100322.09;;;1.01;97.35
75536;BME280;64119;52.070;20.804;2023-11-19T10:47:30;100318.19;;;1.02;97.19
75536;BME280;64119;52.070;20.804;2023-11-19T10:50:02;100310.23;;;1.01;96.73
75536;BME280;64119;52.070;20.804;2023-11-19T10:52:32;100304.58;;;1.02;97.04
75536;BME280;64119;52.070;20.804;2023-11-19T10:55:02;100301.44;;;1.04;96.70
75536;BME280;64119;52.070;20.804;2023-11-19T10:57:36;100289.17;;;1.07;97.28
75536;BME280;64119;52.070;20.804;2023-11-19T11:00:05;100281.48;;;1.09;97.28
75536;BME280;64119;52.070;20.804;2023-11-19T11:02:40;100277.02;;;1.09;97.28
75536;BME280;64119;52.070;20.804;2023-11-19T11:05:12;100271.50;;;1.10;96.96
75536;BME280;64119;52.070;20.804;2023-11-19T11:07:40;100262.08;;;1.10;97.15
75536;BME280;64119;52.070;20.804;2023-11-19T11:10:09;100252.79;;;1.13;97.48
75536;BME280;64119;52.070;20.804;2023-11-19T11:12:40;100248.98;;;1.16;97.41
75536;BME280;64119;52.070;20.804;2023-11-19T11:15:11;100238.13;;;1.17;97.11
75536;BME280;64119;52.070;20.804;2023-11-19T11:17:43;100234.55;;;1.18;97.34
75536;BME280;64119;52.070;20.804;2023-11-19T11:20:12;100233.04;;;1.21;97.15
75536;BME280;64119;52.070;20.804;2023-11-19T11:26:21;100215.15;;;1.23;96.87
75536;BME280;64119;52.070;20.804;2023-11-19T11:29:02;100207.50;;;1.21;97.46
75536;BME280;64119;52.070;20.804;2023-11-19T11:37:36;100190.50;;;1.20;98.42
75536;BME280;64119;52.070;20.804;2023-11-19T11:40:06;100187.52;;;1.22;97.90
75536;BME280;64119;52.070;20.804;2023-11-19T11:42:38;100183.73;;;1.24;97.41
75536;BME280;64119;52.070;20.804;2023-11-19T11:45:08;100174.33;;;1.24;97.55
75536;BME280;64119;52.070;20.804;2023-11-19T11:50:15;100165.30;;;1.21;97.00
75536;BME280;64119;52.070;20.804;2023-11-19T11:55:51;100150.28;;;1.18;98.61
75536;BME280;64119;52.070;20.804;2023-11-19T12:00:48;100142.90;;;1.19;97.49
75536;BME280;64119;52.070;20.804;2023-11-19T12:03:20;100135.83;;;1.18;98.00
75536;BME280;64119;52.070;20.804;2023-11-19T12:05:49;100130.02;;;1.17;98.78
75536;BME280;64119;52.070;20.804;2023-11-19T12:08:25;100127.80;;;1.22;98.15
75536;BME280;64119;52.070;20.804;2023-11-19T12:10:55;100129.29;;;1.21;97.95
75536;BME280;64119;52.070;20.804;2023-11-19T12:14:02;100127.14;;;1.20;97.91
75536;BME280;64119;52.070;20.804;2023-11-19T12:16:31;100118.39;;;1.18;98.27
75536;BME280;64119;52.070;20.804;2023-11-19T12:19:04;100119.02;;;1.21;97.84
75536;BME280;64119;52.070;20.804;2023-11-19T12:21:33;100115.60;;;1.18;98.03
75536;BME280;64119;52.070;20.804;2023-11-19T12:24:04;100108.96;;;1.18;98.21
75536;BME280;64119;52.070;20.804;2023-11-19T12:26:37;100104.26;;;1.20;98.05
75536;BME280;64119;52.070;20.804;2023-11-19T12:29:05;100103.66;;;1.19;98.14
75536;BME280;64119;52.070;20.804;2023-11-19T12:31:36;100105.27;;;1.21;97.84
75536;BME280;64119;52.070;20.804;2023-11-19T12:34:06;100100.63;;;1.18;98.16
75536;BME280;64119;52.070;20.804;2023-11-19T12:36:35;100097.48;;;1.18;97.66
75536;BME280;64119;52.070;20.804;2023-11-19T12:39:03;100099.45;;;1.20;97.98
75536;BME280;64119;52.070;20.804;2023-11-19T12:41:31;100101.54;;;1.20;97.64
75536;BME280;64119;52.070;20.804;2023-11-19T12:44:09;100103.73;;;1.17;97.86
75536;BME280;64119;52.070;20.804;2023-11-19T12:46:37;100102.34;;;1.19;97.75
75536;BME280;64119;52.070;20.804;2023-11-19T12:49:07;100098.13;;;1.19;97.64
75536;BME280;64119;52.070;20.804;2023-11-19T12:51:35;100100.58;;;1.21;97.25
75536;BME280;64119;52.070;20.804;2023-11-19T12:54:04;100095.74;;;1.20;97.56
75536;BME280;64119;52.070;20.804;2023-11-19T12:56:32;100086.55;;;1.20;97.40
75536;BME280;64119;52.070;20.804;2023-11-19T12:59:10;100081.42;;;1.17;97.69
75536;BME280;64119;52.070;20.804;2023-11-19T13:01:39;100075.05;;;1.18;97.68
75536;BME280;64119;52.070;20.804;2023-11-19T13:04:18;100063.31;;;1.17;97.82
75536;BME280;64119;52.070;20.804;2023-11-19T13:06:47;100056.21;;;1.14;97.93
75536;BME280;64119;52.070;20.804;2023-11-19T13:09:32;100050.73;;;1.13;98.79
75536;BME280;64119;52.070;20.804;2023-11-19T13:12:12;100044.52;;;1.13;98.62
75536;BME280;64119;52.070;20.804;2023-11-19T13:14:40;100033.08;;;1.14;98.52
75536;BME280;64119;52.070;20.804;2023-11-19T13:17:13;100027.39;;;1.13;98.35
75536;BME280;64119;52.070;20.804;2023-11-19T13:19:42;100019.25;;;1.13;98.29